Time;durP1;ratioP1;P1;durP2;ratioP2;P2;SDS_P1;SDS_P2;PMS_P1;PMS_P2;Temp;Humidity;BMP_temperature;BMP_pressure;BME280_temperature;BME280_humidity;BME280_pressure;Samples;Min_cycle;Max_cycle;Signal;HPM_P1;HPM_P2
2022/07/02 00:02:17;;;;;;;8.35;2.90;;;;;;;17.57;54.58;100981.88;1709085;83;21203;-55
2022/07/02 00:05:25;;;;;;;11.03;3.10;;;;;;;17.49;54.64;100979.31;1695806;84;21240;-54
2022/07/02 00:08:33;;;;;;;7.70;3.20;;;;;;;17.41;54.70;100975.30;1680538;85;21185;-55
2022/07/02 00:11:40;;;;;;;10.28;2.77;;;;;;;17.38;54.84;100979.83;1679803;85;21234;-55
2022/07/02 00:14:46;;;;;;;7.78;3.02;;;;;;;17.33;54.87;100984.60;1680483;84;21299;-54
2022/07/02 00:17:53;;;;;;;6.15;2.83;;;;;;;17.29;54.92;100989.37;1680278;85;21181;-54
2022/07/02 00:20:59;;;;;;;5.33;2.87;;;;;;;17.24;54.95;100994.14;1680639;84;21228;-54
2022/07/02 00:24:07;;;;;;;5.20;2.98;;;;;;;17.21;55.03;101000.61;1672549;85;21235;-55
2022/07/02 00:27:13;;;;;;;7.45;3.02;;;;;;;17.14;55.05;101003.33;1680646;85;21236;-54
2022/07/02 00:30:19;;;;;;;6.67;3.00;;;;;;;17.11;55.10;101010.66;1680547;84;21225;-53
2022/07/02 00:33:26;;;;;;;8.53;2.70;;;;;;;17.07;55.19;101012.13;1650247;85;21205;-55
2022/07/02 00:36:35;;;;;;;9.33;2.67;;;;;;;17.05;55.25;101014.23;1659165;85;21280;-54
2022/07/02 00:39:41;;;;;;;6.83;2.80;;;;;;;17.02;55.27;101013.27;1674634;84;21402;-54
2022/07/02 00:42:47;;;;;;;9.78;3.10;;;;;;;16.98;55.29;101015.26;1674433;86;21220;-54
2022/07/02 00:45:53;;;;;;;7.35;2.85;;;;;;;16.93;55.32;101019.16;1642089;85;21225;-54
2022/07/02 01:00:27;;;;;;;9.00;3.17;;;;;;;17.14;54.77;101039.84;1813841;79;28172;-54
2022/07/02 01:03:32;;;;;;;8.98;3.20;;;;;;;17.05;54.77;101038.27;1847663;77;21188;-55
2022/07/02 01:06:41;;;;;;;6.25;2.98;;;;;;;16.98;54.92;101044.30;1847628;77;21176;-55
2022/07/02 01:13:13;;;;;;;7.67;2.90;;;;;;;16.81;55.07;101049.81;1840219;77;21796;-55
2022/07/02 01:16:19;;;;;;;8.68;3.00;;;;;;;16.73;55.21;101054.09;1837367;77;21696;-54
2022/07/02 01:19:29;;;;;;;11.83;3.27;;;;;;;16.65;55.28;101053.69;1836741;78;21244;-54
2022/07/02 01:22:48;;;;;;;6.22;3.00;;;;;;;16.56;55.30;101057.66;1836167;77;21223;-55
2022/07/02 01:25:59;;;;;;;12.50;2.70;;;;;;;16.50;55.48;101063.11;1836161;78;21181;-57
2022/07/02 01:29:07;;;;;;;12.88;3.30;;;;;;;16.46;55.54;101064.02;1836309;77;21326;-55
2022/07/02 01:32:15;;;;;;;11.48;3.42;;;;;;;16.41;55.61;101062.38;1836140;78;21160;-56
2022/07/02 01:35:20;;;;;;;6.92;3.50;;;;;;;16.31;55.59;101073.75;1836518;78;21207;-55
2022/07/02 01:38:26;;;;;;;9.70;3.87;;;;;;;16.23;55.64;101070.24;1836106;78;21192;-57
2022/07/02 01:41:40;;;;;;;9.33;3.58;;;;;;;16.13;55.64;101073.32;1836371;78;21169;-56
2022/07/02 01:44:47;;;;;;;14.70;3.87;;;;;;;16.01;55.67;101074.89;1836592;77;21169;-54
2022/07/02 01:47:53;;;;;;;10.40;2.87;;;;;;;15.92;55.74;101080.17;1836913;77;21161;-55
2022/07/02 01:50:59;;;;;;;7.87;3.77;;;;;;;15.85;55.87;101081.15;1836577;77;21334;-57
2022/07/02 01:54:07;;;;;;;7.90;3.17;;;;;;;15.81;55.90;101082.05;1836422;77;21338;-55
2022/07/02 01:57:13;;;;;;;6.65;3.08;;;;;;;15.78;55.94;101088.47;1836508;77;21173;-54
2022/07/02 02:00:20;;;;;;;11.80;3.40;;;;;;;15.74;56.04;101100.45;1835156;77;21527;-53
2022/07/02 02:03:26;;;;;;;11.73;3.27;;;;;;;15.71;56.00;101106.88;1835697;77;21215;-55
2022/07/02 02:06:33;;;;;;;8.70;2.80;;;;;;;15.65;55.98;101107.64;1835695;77;21189;-54
2022/07/02 02:09:39;;;;;;;7.90;3.27;;;;;;;15.58;55.99;101106.16;1835636;77;21511;-55
2022/07/02 02:12:52;;;;;;;11.28;3.22;;;;;;;15.59;56.07;101112.00;1855966;76;22211;-55
2022/07/02 02:15:58;;;;;;;9.23;3.47;;;;;;;15.48;56.08;101118.00;1773869;81;21173;-53
2022/07/02 02:19:05;;;;;;;8.75;3.27;;;;;;;15.44;56.13;101115.30;1771971;79;21306;-54
2022/07/02 02:22:12;;;;;;;8.15;2.98;;;;;;;15.43;56.27;101118.25;1771909;80;21224;-54
2022/07/02 02:25:19;;;;;;;8.30;2.92;;;;;;;15.44;56.31;101124.09;1774143;80;21212;-54
2022/07/02 02:28:25;;;;;;;10.38;3.75;;;;;;;15.45;56.32;101121.66;1772223;79;21205;-55
2022/07/02 02:31:32;;;;;;;9.53;3.15;;;;;;;15.40;56.26;101118.09;1773189;80;21659;-54
2022/07/02 02:34:39;;;;;;;10.23;2.98;;;;;;;15.36;56.32;101125.02;1772960;79;21217;-54
2022/07/02 02:37:45;;;;;;;7.40;2.90;;;;;;;15.37;56.46;101137.75;1772027;79;21237;-56
2022/07/02 02:40:52;;;;;;;13.55;3.70;;;;;;;15.38;56.47;101140.86;1772650;80;21240;-53
2022/07/02 02:44:00;;;;;;;11.50;3.15;;;;;;;15.38;56.47;101141.38;1774959;79;21375;-54
2022/07/02 02:47:06;;;;;;;8.48;3.20;;;;;;;15.34;56.43;101147.78;1775857;80;21304;-54
2022/07/02 02:50:14;;;;;;;9.35;3.25;;;;;;;15.36;56.47;101158.12;1773683;80;21213;-54
2022/07/02 02:53:22;;;;;;;7.08;3.33;;;;;;;15.35;56.55;101153.62;1783320;79;21229;-56
2022/07/02 02:56:29;;;;;;;12.37;3.30;;;;;;;15.37;56.58;101156.20;1772178;80;21181;-55
2022/07/02 02:59:37;;;;;;;13.78;3.62;;;;;;;15.40;56.68;101165.00;1774001;79;21268;-56
2022/07/02 03:02:42;;;;;;;6.67;3.10;;;;;;;15.43;56.68;101171.52;1771836;79;21201;-56
2022/07/02 03:05:51;;;;;;;6.47;3.22;;;;;;;15.50;56.78;101175.77;1771889;80;21240;-53
2022/07/02 03:08:56;;;;;;;6.37;3.17;;;;;;;15.57;56.83;101174.81;1771525;79;21209;-54
2022/07/02 03:12:02;;;;;;;7.03;2.70;;;;;;;15.60;56.73;101175.81;1772116;79;21213;-54
2022/07/02 03:15:08;;;;;;;7.70;3.08;;;;;;;15.64;56.72;101177.16;1776023;80;21220;-55
2022/07/02 03:18:14;;;;;;;7.33;3.10;;;;;;;15.70;56.83;101175.02;1773820;79;21201;-54
2022/07/02 03:21:21;;;;;;;6.75;2.72;;;;;;;15.78;56.76;101177.69;1769477;80;21253;-58
2022/07/02 03:24:31;;;;;;;8.83;3.17;;;;;;;15.80;56.69;101185.27;1768426;80;21216;-55
2022/07/02 03:27:38;;;;;;;16.27;3.20;;;;;;;15.81;56.64;101180.06;1768571;80;21181;-55
2022/07/02 03:30:44;;;;;;;7.75;3.17;;;;;;;15.88;56.80;101172.75;1768011;80;21765;-56
2022/07/02 03:33:49;;;;;;;13.00;3.30;;;;;;;15.94;56.80;101168.35;1769072;80;21684;-55
2022/07/02 03:36:54;;;;;;;11.05;3.47;;;;;;;15.96;56.79;101170.41;1736356;81;21181;-56
2022/07/02 03:40:01;;;;;;;5.37;3.20;;;;;;;15.99;56.86;101183.31;1731501;82;21935;-55
2022/07/02 03:43:06;;;;;;;12.47;3.40;;;;;;;16.06;56.89;101177.34;1730694;83;21713;-55
2022/07/02 03:46:12;;;;;;;11.40;3.27;;;;;;;16.13;56.88;101181.58;1731188;83;21240;-55
2022/07/02 03:49:20;;;;;;;9.95;3.17;;;;;;;16.21;56.90;101182.85;1731280;83;21243;-55
2022/07/02 03:52:27;;;;;;;10.03;2.90;;;;;;;16.30;56.92;101192.22;1731266;83;21217;-56
2022/07/02 03:55:35;;;;;;;11.38;3.50;;;;;;;16.38;56.92;101192.11;1731417;83;21186;-55
2022/07/02 03:58:41;;;;;;;9.70;3.12;;;;;;;16.46;56.86;101202.77;1731234;83;21280;-54
2022/07/02 04:01:48;;;;;;;7.87;3.15;;;;;;;16.51;56.91;101191.45;1731227;83;21193;-55
2022/07/02 04:04:55;;;;;;;7.12;2.83;;;;;;;16.61;56.99;101194.77;1731365;83;21213;-54
2022/07/02 04:08:02;;;;;;;9.25;3.30;;;;;;;16.74;57.02;101206.50;1731312;83;21466;-56
2022/07/02 04:11:08;;;;;;;8.63;3.17;;;;;;;16.84;56.96;101208.43;1731296;83;21331;-56
2022/07/02 04:14:14;;;;;;;7.35;2.95;;;;;;;16.93;56.96;101212.77;1731248;80;21268;-55
2022/07/02 04:17:20;;;;;;;9.63;3.20;;;;;;;17.02;56.89;101215.22;1731036;83;21254;-54
2022/07/02 04:20:26;;;;;;;8.55;3.00;;;;;;;17.10;56.89;101208.69;1731038;83;21193;-54
2022/07/02 04:23:33;;;;;;;11.22;3.62;;;;;;;17.20;56.84;101205.06;1757388;81;21173;-55
2022/07/02 04:26:39;;;;;;;6.45;2.90;;;;;;;17.31;56.79;101205.91;1773604;80;21178;-54
2022/07/02 04:29:46;;;;;;;6.50;2.87;;;;;;;17.40;56.71;101208.86;1773221;79;21339;-55
2022/07/02 04:32:52;;;;;;;13.98;2.95;;;;;;;17.48;56.60;101211.52;1783853;79;21504;-56
2022/07/02 04:35:59;;;;;;;6.90;2.85;;;;;;;17.55;56.59;101220.20;1784195;80;21327;-55
2022/07/02 04:39:06;;;;;;;6.85;2.60;;;;;;;17.65;56.55;101224.00;1768461;80;21784;-54
2022/07/02 04:42:14;;;;;;;10.05;2.80;;;;;;;17.69;56.50;101226.72;1773860;80;21170;-55
2022/07/02 04:45:22;;;;;;;5.92;2.72;;;;;;;17.77;56.45;101230.17;1773046;80;21252;-55
2022/07/02 04:48:31;;;;;;;8.70;2.60;;;;;;;17.87;56.45;101233.45;1772965;79;21241;-55
2022/07/02 04:51:38;;;;;;;8.90;3.25;;;;;;;17.98;56.40;101235.34;1772633;80;21257;-56
2022/07/02 04:54:47;;;;;;;11.10;3.50;;;;;;;18.02;56.17;101239.40;1773112;79;21432;-55
2022/07/02 04:57:57;;;;;;;13.03;3.50;;;;;;;18.06;56.20;101239.34;1765507;79;21209;-55
2022/07/02 05:01:06;;;;;;;7.08;3.30;;;;;;;18.15;56.25;101236.20;1773049;80;21198;-55
2022/07/02 05:04:23;;;;;;;5.25;3.02;;;;;;;18.25;56.25;101237.22;1771930;79;21864;-54
2022/07/02 05:07:30;;;;;;;4.78;2.72;;;;;;;18.31;56.20;101235.87;1773077;80;21237;-54
2022/07/02 05:10:38;;;;;;;7.62;2.50;;;;;;;18.38;56.17;101229.84;1772408;80;21381;-55
2022/07/02 05:13:44;;;;;;;12.98;2.95;;;;;;;18.48;56.14;101239.16;1771988;79;21197;-55
2022/07/02 05:16:54;;;;;;;5.87;2.85;;;;;;;18.56;56.09;101232.92;1771327;80;21201;-55
2022/07/02 05:20:01;;;;;;;6.78;2.95;;;;;;;18.63;56.03;101238.50;1769261;79;21256;-55
2022/07/02 05:23:13;;;;;;;8.20;3.15;;;;;;;18.72;56.00;101228.92;1754751;79;21193;-55
2022/07/02 05:26:22;;;;;;;12.28;2.85;;;;;;;18.81;55.91;101234.08;1749062;80;21154;-54
2022/07/02 05:29:30;;;;;;;18.87;3.40;;;;;;;18.86;55.75;101227.38;1758540;80;21292;-55
2022/07/02 05:32:36;;;;;;;8.43;2.80;;;;;;;18.94;55.74;101234.13;1752790;80;21197;-55
2022/07/02 05:35:43;;;;;;;77.78;13.58;;;;;;;19.05;55.66;101236.81;1755704;80;21768;-55
2022/07/02 05:38:51;;;;;;;17.35;6.03;;;;;;;19.11;55.46;101232.66;1751562;80;21328;-55
2022/07/02 05:41:57;;;;;;;16.25;5.22;;;;;;;19.17;55.32;101226.27;1750400;80;21229;-55
2022/07/02 05:45:06;;;;;;;18.12;5.00;;;;;;;19.24;55.24;101227.14;1781587;79;21825;-55
2022/07/02 05:48:17;;;;;;;20.27;5.20;;;;;;;19.32;55.12;101226.11;1748856;80;21197;-55
2022/07/02 05:51:29;;;;;;;41.18;8.80;;;;;;;19.41;55.04;101226.77;1769758;80;21189;-55
2022/07/02 05:54:37;;;;;;;14.90;4.45;;;;;;;19.50;54.94;101222.17;1770886;80;21220;-54
2022/07/02 05:57:43;;;;;;;7.12;2.98;;;;;;;19.57;54.74;101223.57;1770701;80;21197;-56
2022/07/02 06:00:55;;;;;;;16.62;3.33;;;;;;;19.61;54.53;101217.89;1769710;80;21197;-56
2022/07/02 06:04:03;;;;;;;8.33;2.92;;;;;;;19.63;54.52;101211.59;1770236;80;21212;-55
2022/07/02 06:10:41;;;;;;;3.85;2.92;;;;;;;19.66;54.26;101210.64;1770691;81;21193;-55
2022/07/02 06:13:52;;;;;;;6.05;2.90;;;;;;;19.72;54.13;101210.30;1725255;82;21208;-53
2022/07/02 06:17:00;;;;;;;7.45;2.83;;;;;;;19.76;53.83;101217.12;1771952;79;21229;-53
2022/07/02 06:20:13;;;;;;;8.63;3.15;;;;;;;19.75;53.64;101220.98;1772227;80;21228;-54
2022/07/02 06:23:25;;;;;;;4.70;2.75;;;;;;;19.75;53.52;101228.79;1772149;79;21197;-54
2022/07/02 06:26:33;;;;;;;7.80;3.20;;;;;;;19.78;53.40;101235.83;1772482;80;21228;-55
2022/07/02 06:29:41;;;;;;;14.13;3.30;;;;;;;19.77;53.18;101219.71;1772969;79;21220;-54
2022/07/02 06:32:51;;;;;;;10.08;3.02;;;;;;;19.79;53.10;101226.44;1773215;79;21313;-55
2022/07/02 06:36:03;;;;;;;7.60;2.40;;;;;;;19.84;53.02;101232.18;1773169;80;21343;-54
2022/07/02 06:39:14;;;;;;;8.85;2.80;;;;;;;19.92;52.90;101240.30;1773000;79;21757;-56
2022/07/02 06:42:30;;;;;;;7.17;2.70;;;;;;;19.95;52.65;101232.39;1733450;83;21791;-53
2022/07/02 06:45:37;;;;;;;7.03;2.83;;;;;;;20.01;52.61;101221.78;1683452;85;21245;-55
2022/07/02 06:48:48;;;;;;;6.47;2.67;;;;;;;20.13;52.60;101230.33;1688949;84;21257;-55
2022/07/02 06:51:57;;;;;;;7.67;3.02;;;;;;;20.17;52.28;101227.48;1689790;84;21234;-54
2022/07/02 06:55:05;;;;;;;4.97;2.35;;;;;;;20.17;52.14;101217.75;1708983;83;21243;-56
2022/07/02 06:58:17;;;;;;;5.45;2.42;;;;;;;20.22;52.04;101220.70;1661610;85;21291;-56
2022/07/02 07:01:26;;;;;;;9.68;2.62;;;;;;;20.25;51.88;101218.88;1662021;85;21227;-56
2022/07/02 07:04:38;;;;;;;6.95;2.80;;;;;;;20.29;51.77;101227.98;1661980;85;21371;-55
2022/07/02 07:07:48;;;;;;;5.97;2.62;;;;;;;20.33;51.59;101220.02;1676184;84;21251;-55
2022/07/02 07:10:57;;;;;;;7.85;2.65;;;;;;;20.33;51.34;101217.24;1689809;84;21235;-54
2022/07/02 07:14:03;;;;;;;9.08;2.83;;;;;;;20.31;51.28;101227.76;1689370;84;21250;-54
2022/07/02 07:17:13;;;;;;;6.67;2.67;;;;;;;20.33;51.15;101219.50;1689642;84;21267;-54
2022/07/02 07:20:31;;;;;;;13.22;3.50;;;;;;;20.35;51.03;101213.19;1647030;86;21743;-54
2022/07/02 07:23:35;;;;;;;5.05;2.62;;;;;;;20.43;50.99;101213.47;1662320;85;21319;-55
2022/07/02 07:26:45;;;;;;;13.40;2.75;;;;;;;20.52;50.90;101228.31;1661995;86;21219;-55
2022/07/02 07:29:55;;;;;;;8.08;2.72;;;;;;;20.55;50.71;101215.91;1661986;85;21846;-55
2022/07/02 07:33:06;;;;;;;6.75;2.87;;;;;;;20.61;50.59;101223.37;1662789;85;21239;-56
2022/07/02 07:36:19;;;;;;;11.63;2.92;;;;;;;20.65;50.47;101227.40;1662519;85;21274;-55
2022/07/02 07:39:25;;;;;;;5.90;2.67;;;;;;;20.63;50.26;101223.45;1661894;85;21286;-54
2022/07/02 07:42:33;;;;;;;8.73;3.02;;;;;;;20.64;50.17;101218.75;1673977;83;21701;-53
2022/07/02 07:45:42;;;;;;;5.95;2.62;;;;;;;20.68;50.07;101219.47;1667856;83;21396;-53
2022/07/02 07:48:50;;;;;;;44.15;8.25;;;;;;;20.72;49.89;101217.11;1684458;83;21231;-54
2022/07/02 07:51:58;;;;;;;79.95;12.60;;;;;;;20.74;49.83;101217.72;1663158;85;21330;-52
2022/07/02 07:55:12;;;;;;;9.65;3.17;;;;;;;20.80;49.82;101221.03;1684023;83;21219;-53
2022/07/02 07:58:24;;;;;;;9.68;2.30;;;;;;;20.86;49.76;101228.48;1708705;84;21251;-53
2022/07/02 08:01:33;;;;;;;5.78;2.37;;;;;;;20.93;49.59;101227.06;1710657;83;22091;-53
2022/07/02 08:04:47;;;;;;;7.12;2.25;;;;;;;20.97;49.38;101234.77;1718321;82;21869;-52
2022/07/02 08:08:05;;;;;;;6.28;2.42;;;;;;;20.98;49.17;101225.33;1718538;82;21852;-54
2022/07/02 08:11:09;;;;;;;14.33;3.37;;;;;;;21.03;49.12;101223.27;1644358;86;21234;-54
2022/07/02 08:14:17;;;;;;;8.15;2.33;;;;;;;21.12;49.11;101222.77;1635849;87;21404;-55
2022/07/02 08:17:28;;;;;;;4.72;2.17;;;;;;;21.22;48.96;101229.25;1644630;85;21875;-55
2022/07/02 08:20:35;;;;;;;6.83;2.55;;;;;;;21.30;48.84;101225.66;1643535;87;21232;-57
2022/07/02 08:23:45;;;;;;;8.48;2.10;;;;;;;21.39;48.73;101232.66;1659813;85;21239;-55
2022/07/02 08:26:56;;;;;;;9.40;2.65;;;;;;;21.49;48.64;101232.16;1691683;84;21258;-56
2022/07/02 08:30:02;;;;;;;6.42;2.35;;;;;;;21.53;48.49;101227.30;1709094;84;21223;-54
2022/07/02 08:33:09;;;;;;;3.87;2.33;;;;;;;21.58;48.42;101230.26;1710020;83;21759;-55
2022/07/02 08:36:16;;;;;;;6.92;2.55;;;;;;;21.64;48.37;101229.38;1692566;83;21283;-55
2022/07/02 08:39:25;;;;;;;5.00;2.00;;;;;;;21.62;48.17;101230.13;1709055;84;21295;-56
2022/07/02 08:42:36;;;;;;;6.97;2.22;;;;;;;21.69;48.19;101232.30;1682066;84;21858;-55
2022/07/02 08:45:43;;;;;;;5.12;2.20;;;;;;;21.80;48.15;101226.58;1693160;84;21583;-56
2022/07/02 08:48:50;;;;;;;5.53;2.10;;;;;;;21.91;48.04;101232.23;1694042;84;21301;-55
2022/07/02 08:52:07;;;;;;;4.40;2.20;;;;;;;21.98;47.84;101230.25;1694529;84;21253;-56
2022/07/02 08:55:15;;;;;;;3.60;2.10;;;;;;;22.03;47.71;101236.00;1694134;84;21225;-55
2022/07/02 08:58:24;;;;;;;6.97;2.22;;;;;;;22.07;47.48;101230.82;1678178;84;21580;-56
2022/07/02 09:01:31;;;;;;;4.55;1.90;;;;;;;22.08;47.26;101231.13;1694003;84;21241;-56
2022/07/02 09:04:42;;;;;;;3.37;2.05;;;;;;;22.06;47.12;101236.07;1693838;84;21252;-55
2022/07/02 09:07:55;;;;;;;5.50;2.30;;;;;;;22.03;46.96;101240.19;1694565;84;21265;-56
2022/07/02 09:11:04;;;;;;;3.77;2.05;;;;;;;22.00;46.90;101235.59;1694263;83;21183;-55
2022/07/02 09:14:17;;;;;;;3.98;2.00;;;;;;;22.04;46.87;101229.89;1678666;84;21274;-54
2022/07/02 09:17:28;;;;;;;8.23;2.45;;;;;;;22.10;46.69;101233.15;1693298;82;21552;-57
2022/07/02 09:20:35;;;;;;;5.12;2.05;;;;;;;22.13;46.57;101222.39;1695444;83;21207;-57
2022/07/02 09:23:42;;;;;;;6.65;2.30;;;;;;;22.18;46.53;101221.13;1694035;83;21294;-56
2022/07/02 09:26:50;;;;;;;4.10;2.15;;;;;;;22.19;46.40;101238.73;1676952;84;21730;-56
2022/07/02 09:30:03;;;;;;;5.10;1.95;;;;;;;22.20;46.21;101234.31;1696696;83;21235;-56
2022/07/02 09:36:45;;;;;;;;;;;;;;;22.40;46.01;101233.23;1696726;83;21235;-58
2022/07/02 09:40:09;;;;;;;5.45;2.08;;;;;;;22.47;45.89;101227.88;1694246;84;20243;-57
2022/07/02 09:43:17;;;;;;;3.85;2.00;;;;;;;22.57;45.81;101224.58;1696308;82;21298;-56
2022/07/02 09:46:31;;;;;;;3.95;2.02;;;;;;;22.69;45.61;101246.45;1692615;84;21203;-57
2022/07/02 09:49:39;;;;;;;6.80;2.17;;;;;;;22.71;45.41;101224.18;1692079;83;21230;-57
2022/07/02 09:53:02;;;;;;;2.60;1.80;;;;;;;22.78;45.29;101224.09;1691781;83;21244;-56
2022/07/02 09:56:12;;;;;;;8.35;2.20;;;;;;;22.84;45.20;101227.34;1700776;84;21306;-55
2022/07/02 09:59:21;;;;;;;2.95;1.92;;;;;;;22.88;45.06;101217.42;1691164;83;21771;-56
2022/07/02 10:02:32;;;;;;;4.17;1.60;;;;;;;23.02;45.00;101210.02;1691581;83;21788;-56
2022/07/02 10:05:42;;;;;;;6.37;2.22;;;;;;;23.13;44.76;101217.59;1655515;85;21236;-55
2022/07/02 10:08:49;;;;;;;2.50;1.87;;;;;;;23.19;44.68;101214.38;1663997;85;21283;-55
2022/07/02 10:11:57;;;;;;;3.77;1.80;;;;;;;23.34;44.60;101222.65;1666491;85;21337;-56
2022/07/02 10:15:05;;;;;;;5.70;1.77;;;;;;;23.39;44.41;101199.56;1664147;85;21244;-55
2022/07/02 10:18:13;;;;;;;5.47;1.77;;;;;;;23.46;44.32;101209.57;1663681;85;21374;-56
2022/07/02 10:21:21;;;;;;;4.00;2.40;;;;;;;23.49;44.04;101204.03;1664239;85;21272;-58
2022/07/02 10:24:27;;;;;;;3.02;2.05;;;;;;;23.51;43.96;101202.72;1704589;82;21305;-56
2022/07/02 10:27:42;;;;;;;5.97;2.25;;;;;;;23.56;43.94;101195.01;1692320;83;21207;-55
2022/07/02 10:30:48;;;;;;;5.83;2.30;;;;;;;23.69;43.91;101191.95;1676025;84;21339;-56
2022/07/02 10:34:42;;;;;;;4.58;1.90;;;;;;;23.84;43.84;101192.88;1691866;85;21299;-57
2022/07/02 10:37:50;;;;;;;7.42;1.90;;;;;;;23.93;43.68;101206.27;1618567;85;21252;-56
2022/07/02 10:41:01;;;;;;;3.75;1.90;;;;;;;23.98;43.45;101196.63;1647387;87;21838;-56
2022/07/02 10:44:07;;;;;;;5.47;1.70;;;;;;;23.99;43.32;101199.72;1660352;84;21246;-56
2022/07/02 10:47:35;;;;;;;5.05;1.90;;;;;;;24.03;43.27;101191.16;1666132;84;22122;-55
2022/07/02 10:50:50;;;;;;;6.10;2.12;;;;;;;24.10;43.18;101191.87;1629298;87;21264;-57
2022/07/02 10:53:59;;;;;;;11.10;2.45;;;;;;;24.19;43.10;101178.36;1629356;86;21260;-56
2022/07/02 10:57:12;;;;;;;6.10;2.00;;;;;;;24.33;43.10;101190.45;1629888;88;21244;-55
2022/07/02 11:00:22;;;;;;;4.15;1.70;;;;;;;24.41;42.96;101189.21;1629736;88;21221;-59
2022/07/02 11:03:33;;;;;;;2.00;1.60;;;;;;;24.45;42.74;101192.67;1620496;86;21324;-56
2022/07/02 11:06:43;;;;;;;4.50;2.45;;;;;;;24.40;42.54;101173.53;1628931;86;22003;-57
2022/07/02 11:10:01;;;;;;;2.85;1.82;;;;;;;24.37;42.40;101176.82;1648990;86;21241;-57
2022/07/02 11:13:07;;;;;;;3.95;1.80;;;;;;;24.36;42.29;101179.30;1650334;86;21655;-57
2022/07/02 11:16:41;;;;;;;4.72;2.00;;;;;;;24.36;42.20;101188.55;1650840;86;21236;-55
2022/07/02 11:19:52;;;;;;;5.33;2.00;;;;;;;24.48;42.23;101178.17;1651015;87;21300;-55
2022/07/02 11:23:04;;;;;;;4.97;1.62;;;;;;;24.63;42.12;101174.30;1636473;87;21240;-56
2022/07/02 11:26:10;;;;;;;4.35;1.80;;;;;;;24.72;41.98;101158.00;1650619;86;21989;-57
2022/07/02 11:29:17;;;;;;;4.58;1.87;;;;;;;24.80;41.83;101164.61;1671908;84;21212;-56
2022/07/02 11:32:23;;;;;;;2.87;1.72;;;;;;;24.85;41.78;101173.95;1669364;84;21844;-56
2022/07/02 11:35:28;;;;;;;4.30;2.10;;;;;;;24.94;41.69;101178.04;1661311;84;21204;-55
2022/07/02 11:38:49;;;;;;;5.33;1.80;;;;;;;24.99;41.48;101175.34;1660902;84;21701;-56
2022/07/02 11:42:00;;;;;;;5.08;2.00;;;;;;;25.03;41.35;101173.75;1661912;84;21757;-57
2022/07/02 11:45:12;;;;;;;3.33;2.15;;;;;;;25.08;41.28;101169.62;1668736;84;21294;-57
2022/07/02 11:48:36;;;;;;;4.47;1.72;;;;;;;25.11;41.19;101166.88;1675463;85;21193;-56
2022/07/02 11:51:48;;;;;;;2.72;1.85;;;;;;;25.12;41.16;101164.37;1681079;84;21263;-57
2022/07/02 11:54:59;;;;;;;4.47;1.55;;;;;;;25.23;41.15;101170.45;1673044;85;21224;-56
2022/07/02 11:58:10;;;;;;;3.52;1.80;;;;;;;25.28;40.95;101176.16;1675611;85;21224;-57
2022/07/02 12:01:36;;;;;;;3.80;1.90;;;;;;;25.25;40.77;101176.67;1678080;85;21926;-55
2022/07/02 12:04:43;;;;;;;4.72;2.17;;;;;;;25.25;40.71;101175.81;1680952;83;21804;-57
2022/07/02 12:07:56;;;;;;;4.47;2.00;;;;;;;25.31;40.66;101168.64;1664911;85;21181;-56
2022/07/02 12:11:07;;;;;;;4.83;2.42;;;;;;;25.32;40.61;101177.91;1677925;85;21240;-56
2022/07/02 12:14:17;;;;;;;4.20;2.80;;;;;;;25.34;40.55;101173.77;1682793;84;21757;-54
2022/07/02 12:17:28;;;;;;;5.22;2.10;;;;;;;25.33;40.41;101178.20;1687126;83;21277;-56
2022/07/02 12:20:36;;;;;;;4.90;2.45;;;;;;;25.24;40.30;101160.10;1679351;84;21222;-57
2022/07/02 12:23:58;;;;;;;;;;;;;;;25.20;40.18;101156.13;1687346;83;21210;-56
2022/07/02 12:27:15;;;;;;;3.85;2.30;;;;;;;25.11;40.28;101152.88;1689870;83;20237;-55
2022/07/02 12:30:24;;;;;;;4.70;2.20;;;;;;;25.09;40.19;101156.47;1679764;85;21406;-56
2022/07/02 12:33:41;;;;;;;4.42;2.25;;;;;;;25.08;40.19;101154.20;1670912;85;21284;-57
2022/07/02 12:37:03;;;;;;;5.58;2.27;;;;;;;25.10;40.08;101158.73;1678323;85;21267;-56
2022/07/02 12:40:23;;;;;;;3.98;2.05;;;;;;;25.03;40.03;101152.73;1679102;83;21226;-56
2022/07/02 12:43:29;;;;;;;6.37;2.15;;;;;;;25.06;39.95;101154.17;1681734;83;21231;-55
2022/07/02 12:46:53;;;;;;;3.33;1.80;;;;;;;25.11;39.90;101153.41;1686510;79;21250;-56
2022/07/02 12:50:05;;;;;;;4.87;1.95;;;;;;;25.09;39.79;101146.66;1681764;84;21228;-56
2022/07/02 12:53:21;;;;;;;4.17;2.35;;;;;;;25.07;39.80;101140.45;1674559;84;21683;-54
2022/07/02 12:56:29;;;;;;;5.67;2.17;;;;;;;25.10;39.74;101138.57;1696004;83;21399;-55
2022/07/02 12:59:37;;;;;;;6.20;2.05;;;;;;;25.23;39.75;101146.63;1695047;83;21387;-54
2022/07/02 13:02:43;;;;;;;3.20;1.95;;;;;;;25.37;39.70;101142.42;1690764;83;21260;-56
2022/07/02 13:05:53;;;;;;;2.52;1.92;;;;;;;25.41;39.41;101135.77;1692794;83;22276;-57
2022/07/02 13:09:01;;;;;;;2.20;1.80;;;;;;;25.41;39.25;101137.16;1680581;85;21323;-56
2022/07/02 13:12:10;;;;;;;3.22;2.20;;;;;;;25.42;39.14;101133.27;1663855;85;21298;-57
2022/07/02 13:15:19;;;;;;;5.60;2.00;;;;;;;25.41;39.07;101133.81;1652734;85;21235;-56
2022/07/02 13:18:28;;;;;;;3.47;1.82;;;;;;;25.48;39.11;101131.67;1680455;85;21248;-54
2022/07/02 13:21:37;;;;;;;4.62;1.62;;;;;;;25.56;39.08;101127.03;1665280;85;21775;-54
2022/07/02 13:24:45;;;;;;;3.45;2.00;;;;;;;25.67;38.98;101121.06;1679516;83;21297;-55
2022/07/02 13:27:52;;;;;;;2.47;1.70;;;;;;;25.70;38.85;101121.41;1701346;82;21232;-55
2022/07/02 13:31:01;;;;;;;4.05;2.08;;;;;;;25.67;38.63;101123.86;1697213;82;21760;-54
2022/07/02 13:34:10;;;;;;;4.20;1.82;;;;;;;25.60;38.57;101116.16;1705745;82;21267;-56
2022/07/02 13:37:20;;;;;;;6.40;2.12;;;;;;;25.59;38.46;101108.87;1705606;84;21224;-57
2022/07/02 13:40:30;;;;;;;5.92;1.92;;;;;;;25.53;38.43;101119.72;1729859;82;21336;-54
2022/07/02 13:43:37;;;;;;;4.10;2.20;;;;;;;25.52;38.44;101111.84;1706283;82;21206;-55
2022/07/02 13:46:47;;;;;;;7.00;2.15;;;;;;;25.57;38.45;101111.93;1716717;83;21201;-53
2022/07/02 13:49:55;;;;;;;5.58;2.35;;;;;;;25.60;38.34;101116.16;1709171;82;21217;-54
2022/07/02 13:53:04;;;;;;;3.50;1.82;;;;;;;25.57;38.27;101111.07;1716658;83;21225;-55
2022/07/02 13:56:13;;;;;;;2.92;2.22;;;;;;;25.54;38.23;101101.77;1681697;84;21612;-56
2022/07/02 13:59:23;;;;;;;3.33;1.80;;;;;;;25.52;38.23;101101.17;1675088;85;21335;-55
2022/07/02 14:02:32;;;;;;;4.30;2.30;;;;;;;25.56;38.16;101102.38;1679054;85;21260;-56
2022/07/02 14:05:43;;;;;;;3.90;2.08;;;;;;;25.58;38.12;101094.53;1677542;85;21228;-57
2022/07/02 14:08:49;;;;;;;3.27;2.12;;;;;;;25.60;38.06;101095.13;1677286;85;22093;-54
2022/07/02 14:12:04;;;;;;;7.12;2.00;;;;;;;25.50;38.05;101088.80;1678101;85;21197;-54
2022/07/02 14:15:16;;;;;;;4.55;2.20;;;;;;;25.55;38.05;101092.24;1674424;85;21602;-56
2022/07/02 14:18:23;;;;;;;8.65;2.30;;;;;;;25.58;38.05;101091.72;1656628;85;21266;-54
2022/07/02 14:21:33;;;;;;;2.55;2.10;;;;;;;25.61;37.95;101096.27;1691709;84;21717;-55
2022/07/02 14:24:46;;;;;;;4.15;2.20;;;;;;;25.65;37.95;101088.20;1691438;85;21221;-55
2022/07/02 14:27:54;;;;;;;7.55;2.20;;;;;;;25.65;37.92;101075.58;1672030;85;21226;-55
2022/07/02 14:31:04;;;;;;;4.85;2.42;;;;;;;25.65;37.91;101088.20;1673919;85;21275;-55
2022/07/02 14:34:11;;;;;;;6.90;3.37;;;;;;;25.63;37.95;101073.58;1670330;84;21280;-55
2022/07/02 14:37:22;;;;;;;4.25;2.45;;;;;;;25.69;38.00;101079.58;1669936;86;21257;-54
2022/07/02 14:40:30;;;;;;;4.40;1.95;;;;;;;25.71;37.96;101074.00;1692146;84;21247;-56
2022/07/02 14:43:38;;;;;;;5.95;2.30;;;;;;;25.73;37.90;101080.75;1682167;84;21234;-56
2022/07/02 14:46:46;;;;;;;3.12;1.90;;;;;;;25.71;37.90;101073.14;1677089;85;21371;-57
2022/07/02 14:49:53;;;;;;;7.92;2.42;;;;;;;25.69;37.86;101076.20;1674010;82;21745;-55
2022/07/02 14:53:02;;;;;;;6.65;2.35;;;;;;;25.67;37.83;101075.60;1669784;85;21316;-56
2022/07/02 14:56:11;;;;;;;6.60;2.12;;;;;;;25.68;37.80;101075.06;1673976;85;21197;-55
2022/07/02 14:59:18;;;;;;;3.95;2.17;;;;;;;25.66;37.76;101075.86;1675123;84;21265;-54
2022/07/02 15:02:29;;;;;;;6.25;1.80;;;;;;;25.68;37.80;101076.46;1646360;84;21301;-55